Time,TemperatureF,DewpointF,PressureIn,WindDirection,WindDirectionDegrees,WindSpeedMPH,WindSpeedGustMPH,Humidity,HourlyPrecipIn,Conditions,Clouds,dailyrainin,SoftwareType,DateUTC
2013-03-11 00:00:00,22.0,-99.9,-100.00,SW,214,4.0,6.0,-999,-99.99,,,-99.99,,2013-03-11 04:00:00,
2013-03-11 00:53:00,22.0,-99.9,-100.00,SW,214,4.0,6.0,-999,-99.99,,,-99.99,,2013-03-11 04:53:00,
2013-03-11 01:00:00,22.0,-99.9,-100.00,SE,126,2.0,2.0,-999,-99.99,,,-99.99,,2013-03-11 05:00:00,
2013-03-11 01:52:00,22.0,-99.9,-100.00,SE,126,2.0,2.0,-999,-99.99,,,-99.99,,2013-03-11 05:52:00,
2013-03-11 02:00:00,20.0,-99.9,-100.00,West,262,4.0,8.0,-999,-99.99,,,-99.99,,2013-03-11 06:00:00,
2013-03-11 02:53:00,20.0,-99.9,-100.00,West,262,4.0,8.0,-999,-99.99,,,-99.99,,2013-03-11 06:53:00,
2013-03-11 03:00:00,20.0,-99.9,-100.00,SSE,159,2.0,3.0,-999,-99.99,,,-99.99,,2013-03-11 07:00:00,
2013-03-11 03:52:00,20.0,-99.9,-100.00,SSE,159,2.0,3.0,-999,-99.99,,,-99.99,,2013-03-11 07:52:00,
2013-03-11 04:00:00,20.0,-99.9,-100.00,NNW,332,3.0,3.0,-999,-99.99,,,-99.99,,2013-03-11 08:00:00,
2013-03-11 04:52:00,20.0,-99.9,-100.00,NNW,332,3.0,3.0,-999,-99.99,,,-99.99,,2013-03-11 08:52:00,
2013-03-11 05:00:00,20.0,-99.9,-100.00,NW,315,3.0,4.0,-999,-99.99,,,-99.99,,2013-03-11 09:00:00,
2013-03-11 05:53:00,20.0,-99.9,-100.00,NW,315,3.0,4.0,-999,-99.99,,,-99.99,,2013-03-11 09:53:00,
2013-03-11 06:00:00,20.0,-99.9,-100.00,West,276,5.0,7.0,-999,-99.99,,,-99.99,,2013-03-11 10:00:00,
2013-03-11 06:53:00,20.0,-99.9,-100.00,West,276,5.0,7.0,-999,-99.99,,,-99.99,,2013-03-11 10:53:00,
2013-03-11 07:00:00,20.0,-99.9,-100.00,WSW,240,2.0,3.0,-999,-99.99,,,-99.99,,2013-03-11 11:00:00,
2013-03-11 07:53:00,20.0,-99.9,-100.00,WSW,240,2.0,3.0,-999,-99.99,,,-99.99,,2013-03-11 11:53:00,
2013-03-11 08:00:00,20.0,-99.9,-100.00,West,278,0.0,3.0,-999,-99.99,,,-99.99,,2013-03-11 12:00:00,
2013-03-11 08:53:00,20.0,-99.9,-100.00,West,278,0.0,3.0,-999,-99.99,,,-99.99,,2013-03-11 12:53:00,
2013-03-11 09:00:00,20.0,-99.9,-100.00,NNW,343,2.0,5.0,-999,-99.99,,,-99.99,,2013-03-11 13:00:00,
2013-03-11 09:53:00,20.0,-99.9,-100.00,NNW,343,2.0,5.0,-999,-99.99,,,-99.99,,2013-03-11 13:53:00,
2013-03-11 10:00:00,23.0,-99.9,-100.00,West,276,4.0,5.0,-999,-99.99,,,-99.99,,2013-03-11 14:00:00,
2013-03-11 10:53:00,23.0,-99.9,-100.00,West,276,4.0,5.0,-999,-99.99,,,-99.99,,2013-03-11 14:53:00,
2013-03-11 11:54:00,27.0,-99.9,-100.00,WNW,294,3.0,5.0,-999,-99.99,,,-99.99,,2013-03-11 15:54:00,
2013-03-11 12:00:00,33.0,-99.9,-100.00,NW,324,11.0,14.0,-999,-99.99,,,-99.99,,2013-03-11 16:00:00,
2013-03-11 12:03:00,27.0,-99.9,-100.00,WNW,294,3.0,5.0,-999,-99.99,,,-99.99,,2013-03-11 16:03:00,
2013-03-11 12:53:00,33.0,-99.9,-100.00,NW,324,11.0,14.0,-999,-99.99,,,-99.99,,2013-03-11 16:53:00,
2013-03-11 13:00:00,39.0,-99.9,-100.00,NNW,337,13.0,15.0,-999,-99.99,,,-99.99,,2013-03-11 17:00:00,
2013-03-11 13:53:00,39.0,-99.9,-100.00,NNW,337,13.0,15.0,-999,-99.99,,,-99.99,,2013-03-11 17:53:00,
2013-03-11 14:00:00,42.0,-99.9,-100.00,North,0,8.0,11.0,-999,-99.99,,,-99.99,,2013-03-11 18:00:00,
2013-03-11 14:53:00,42.0,-99.9,-100.00,North,0,8.0,11.0,-999,-99.99,,,-99.99,,2013-03-11 18:53:00,
2013-03-11 15:00:00,42.0,-99.9,-100.00,North,4,8.0,13.0,-999,-99.99,,,-99.99,,2013-03-11 19:00:00,
2013-03-11 15:53:00,42.0,-99.9,-100.00,North,4,8.0,13.0,-999,-99.99,,,-99.99,,2013-03-11 19:53:00,
2013-03-11 16:00:00,44.0,-99.9,-100.00,North,349,8.0,9.0,-999,-99.99,,,-99.99,,2013-03-11 20:00:00,
2013-03-11 16:54:00,44.0,-99.9,-100.00,North,349,8.0,9.0,-999,-99.99,,,-99.99,,2013-03-11 20:54:00,
2013-03-11 17:00:00,41.0,-99.9,-100.00,NW,304,10.0,19.0,-999,-99.99,,,-99.99,,2013-03-11 21:00:00,
2013-03-11 17:54:00,41.0,-99.9,-100.00,NW,304,10.0,19.0,-999,-99.99,,,-99.99,,2013-03-11 21:54:00,
2013-03-11 18:00:00,41.0,-99.9,-100.00,West,281,13.0,17.0,-999,-99.99,,,-99.99,,2013-03-11 22:00:00,
2013-03-11 18:54:00,41.0,-99.9,-100.00,West,281,13.0,17.0,-999,-99.99,,,-99.99,,2013-03-11 22:54:00,
2013-03-11 19:00:00,42.0,-99.9,-100.00,West,278,11.0,14.0,-999,-99.99,,,-99.99,,2013-03-11 23:00:00,
2013-03-11 19:54:00,42.0,-99.9,-100.00,West,278,11.0,14.0,-999,-99.99,,,-99.99,,2013-03-11 23:54:00,
2013-03-11 20:00:00,42.0,-99.9,-100.00,NNW,342,7.0,12.0,-999,-99.99,,,-99.99,,2013-03-12 00:00:00,
2013-03-11 20:54:00,42.0,-99.9,-100.00,NNW,342,7.0,12.0,-999,-99.99,,,-99.99,,2013-03-12 00:54:00,
2013-03-11 21:00:00,39.0,-99.9,-100.00,NE,51,12.0,19.0,-999,-99.99,,,-99.99,,2013-03-12 01:00:00,
2013-03-11 21:53:00,39.0,-99.9,-100.00,NE,51,12.0,19.0,-999,-99.99,,,-99.99,,2013-03-12 01:53:00,
2013-03-11 22:00:00,37.0,-99.9,-100.00,NNE,25,8.0,12.0,-999,-99.99,,,-99.99,,2013-03-12 02:00:00,
2013-03-11 22:52:00,37.0,-99.9,-100.00,NNE,25,8.0,12.0,-999,-99.99,,,-99.99,,2013-03-12 02:52:00,
2013-03-11 23:00:00,35.0,-99.9,-100.00,NW,317,8.0,10.0,-999,-99.99,,,-99.99,,2013-03-12 03:00:00,
2013-03-11 23:53:00,35.0,-99.9,-100.00,NW,317,8.0,10.0,-999,-99.99,,,-99.99,,2013-03-12 03:53:00,